• Join FlightAware (Why Join?)
  • Login
  • US Flag 
02:24PM EDT


 

Airport Tracker/Info


-or-


 

Live Flight TrackerFlight Track Log ✈ ASQ5745 ✈ 07-Jul-2013 ✈ KIAD - KALB

Flight Track Log - Related Links

Times and Time Zones

All times are in EDT time to prevent confusion due to time zone crossing. See the ASQ5745 flight status page for this flight to view local times or setup timezone preferences in your user account.

Time Position Orientation Groundspeed Altitude Reporting Facility
EDT Latitude Longitude Course Direction KTS MPH feet Rate Location/Type
08:25AM 38.9500 -77.5167 North 181 208 2,100  Level Potomac TRACON
08:26AM 38.9667 -77.6000 284° West 255 293 4,400 2,460 Climbing Potomac TRACON
08:27AM 39.0333 -77.6333 339° North 289 333 6,900 2,580 Climbing Potomac TRACON
08:28AM 39.3218 -77.4500 North  Level FlightAware Approximate
08:28AM 39.0836 -77.6319 North 304 350 8,700  Level Washington Center
08:29AM 39.4189 -77.4500 North  Level FlightAware Approximate
08:29AM 39.1611 -77.6072 14° North 318 366 10,600  Level Washington Center
08:30AM 39.5160 -77.4500 North  Level FlightAware Approximate
08:30AM 39.2472 -77.5803 14° North 337 388 12,500  Level Washington Center
08:31AM 39.3414 -77.5506 14° North 337 388 14,100 1,560 Climbing Washington Center
08:32AM 39.4400 -77.5208 13° North 342 394 15,600 1,440 Climbing Washington Center
08:33AM 39.6108 -77.4625 15° North 372 428 17,900 1,140 Climbing New York Center
08:34AM 39.7303 -77.4522 North 385 443 18,700 780 Climbing New York Center
08:35AM 39.8428 -77.4550 359° North 398 458 19,500 780 Climbing New York Center
08:36AM 39.9575 -77.4525 North 404 465 20,300 780 Climbing New York Center
08:37AM 40.0767 -77.4503 North 409 471 21,100 720 Climbing New York Center
08:38AM 40.1778 -77.4300 North 414 476 21,800 780 Climbing New York Center
08:39AM 40.2744 -77.3414 35° Northeast 401 461 22,700 900 Climbing New York Center
08:40AM 40.3733 -77.2525 34° Northeast 413 475 23,600 900 Climbing New York Center
08:41AM 40.4717 -77.1689 33° Northeast 423 487 24,500 840 Climbing New York Center
08:43AM 40.5741 -77.1296 16° North  Level FlightAware Approximate
08:43AM 40.6889 -77.0414 16° North 423 487 26,300  Level New York Center
08:44AM 40.7944 -76.9769 25° Northeast 418 481 27,000 300 Climbing New York Center
08:45AM 40.9064 -76.9103 24° Northeast 418 481 27,000  Level New York Center
08:46AM 41.0203 -76.8408 25° Northeast 428 493 27,000  Level New York Center
08:47AM 41.1386 -76.7714 24° Northeast 442 509 27,000  Level New York Center
08:48AM 41.2567 -76.6992 25° Northeast 455 524 27,000  Level New York Center
08:49AM 41.3856 -76.6219 24° Northeast 455 524 27,000  Level New York Center
08:50AM 41.5036 -76.5492 25° Northeast 455 524 27,000  Level New York Center
08:51AM 41.6217 -76.4761 25° Northeast 455 524 27,000 -480 Level New York Center
08:52AM 41.7419 -76.4031 24° Northeast 455 524 26,100 -1,020 Descending New York Center
08:54AM 41.9925 -76.2450 25° Northeast 464 534 24,000 -720 Descending Boston Center
08:55AM 42.1097 -76.1708 25° Northeast 464 534 24,000  Level Boston Center
08:56AM 42.1953 -76.0414 48° Northeast 455 524 24,000  Level Boston Center
08:57AM 42.2481 -75.8844 66° East 441 507 24,000  Level Boston Center
08:58AM 42.2944 -75.7242 69° East 441 507 24,000  Level Boston Center
08:59AM 42.3344 -75.5606 72° East 451 519 24,000 -600 Level Boston Center
09:00AM 42.3744 -75.3911 72° East 456 525 22,900 -1,500 Descending Boston Center
09:01AM 42.4183 -75.2244 70° East 461 531 21,100 -2,100 Descending Boston Center
09:02AM 42.4578 -75.0517 73° East 466 536 18,700 -2,400 Descending Boston Center
09:03AM 42.4972 -74.8817 72° East 472 543 16,400 -2,340 Descending Boston Center
09:04AM 42.5269 -74.7558 72° East 455 524 14,500 -2,400 Descending Boston Center
09:05AM 42.5611 -74.6106 72° East 438 504 12,300 -1,920 Descending Boston Center
09:06AM 42.5950 -74.4681 72° East 396 456 10,900 -1,380 Descending Boston Center
09:07AM 42.6283 -74.3364 71° East 306 352 9,500 -1,680 Descending Boston Center
09:08AM 42.6531 -74.2242 73° East 298 343 7,600 -1,980 Descending Boston Center
09:09AM 42.6756 -74.1317 72° East 294 338 5,800 -1,920 Descending Boston Center
09:10AM 42.7492 -74.0686 32° Northeast 282 325 3,700 -1,380 Descending Boston Center
09:11AM 42.8167 -74.0253 25° Northeast 264 304 3,000 -360 Descending Boston Center
09:12AM 42.8700 -73.9303 53° Northeast 261 300 3,000 -240 Level Boston Center
09:13AM 42.8856 -73.8542 74° East 269 310 2,600 -600 Descending Boston Center
09:14AM 42.8506 -73.8108 138° Southeast 192 221 2,000 -720 Descending Boston Center
09:15AM 42.8069 -73.8097 179° South 141 162 1,200 -780 Descending Boston Center
09:16AM 42.7653 -73.8061 176° South 125 144 500 -720 Descending Boston Center